Gaars Mill, Louisiana
Current Conditions -  °F | °C
As of 7:55 AM on Wednesday 26 Nov 2014 (Local Time) from KRSN Reporting Station
Clear Clear  
Wind Chill: 38°   Ceiling: Unl
Heat Index: 42°   Visibility: 10mi
Dew Point: 36°   Wind: 8mph
Humidity: 78%   Direction: 200°SSW
Pressure: 30.16"   Gusts: NA
Location:  32.0727°N, 92.6697°W
Report Text: KRSN 261355Z AUTO 20007KT 10SM CLR 06/02 A3016 RMK AO2 T00580023
Loading
Personal Weather Stations






























Interactive Weather Map New forecast layout! Learn more

10-Day Weather Forecast

Advertisements
Track Severe Weather on mobile